Time;durP1;ratioP1;P1;durP2;ratioP2;P2;SDS_P1;SDS_P2;PMS_P1;PMS_P2;Temp;Humidity;BMP_temperature;BMP_pressure;BME280_temperature;BME280_humidity;BME280_pressure;Samples;Min_cycle;Max_cycle;Signal;HPM_P1;HPM_P2
2022/03/20 00:00:38;;;;;;;31.43;28.33;;;4.40;99.90;;;;;;5014057;28;20468;-71
2022/03/20 00:03:09;;;;;;;30.73;27.20;;;4.30;99.90;;;;;;5039173;28;20460;-71
2022/03/20 00:05:38;;;;;;;29.80;26.70;;;4.30;99.90;;;;;;5038420;28;21068;-71
2022/03/20 00:08:09;;;;;;;30.13;26.97;;;4.30;99.90;;;;;;5030629;28;20824;-70
2022/03/20 00:10:36;;;;;;;31.10;28.07;;;4.30;99.90;;;;;;5042514;28;20464;-71
2022/03/20 00:13:07;;;;;;;31.77;28.60;;;4.30;99.90;;;;;;5034316;28;20481;-71
2022/03/20 00:15:34;;;;;;;29.77;26.80;;;4.30;99.90;;;;;;5035832;28;20865;-71
2022/03/20 00:18:01;;;;;;;34.67;28.90;;;4.30;99.90;;;;;;5033119;28;20540;-71
2022/03/20 00:20:29;;;;;;;35.50;27.87;;;4.30;99.90;;;;;;5038824;28;20798;-71
2022/03/20 00:22:57;;;;;;;27.40;24.80;;;4.30;99.90;;;;;;5044023;28;20477;-71
2022/03/20 00:25:25;;;;;;;35.00;27.33;;;4.30;99.90;;;;;;5036193;28;20524;-71
2022/03/20 00:27:52;;;;;;;31.80;28.50;;;4.30;99.90;;;;;;5029141;28;20835;-71
2022/03/20 00:30:19;;;;;;;33.17;29.77;;;4.20;99.90;;;;;;5039311;28;20465;-71
2022/03/20 00:32:46;;;;;;;30.73;27.70;;;4.20;99.90;;;;;;5038503;28;20491;-71
2022/03/20 00:35:13;;;;;;;31.87;28.47;;;4.20;99.90;;;;;;5039858;28;20467;-71
2022/03/20 00:37:40;;;;;;;31.17;27.90;;;4.10;99.90;;;;;;5040937;28;20490;-70
2022/03/20 00:40:08;;;;;;;31.90;28.60;;;4.10;99.90;;;;;;5033643;28;20465;-70
2022/03/20 00:42:37;;;;;;;32.90;29.50;;;4.10;99.90;;;;;;5035866;28;20468;-71
2022/03/20 00:45:04;;;;;;;30.53;27.53;;;4.10;99.90;;;;;;5040041;28;20457;-71
2022/03/20 00:47:31;;;;;;;32.10;28.73;;;4.00;99.90;;;;;;5040343;28;20460;-71
2022/03/20 00:49:58;;;;;;;31.93;28.53;;;4.00;99.90;;;;;;5034435;28;20456;-71
2022/03/20 00:52:25;;;;;;;33.60;30.10;;;4.00;99.90;;;;;;5035009;28;20484;-71
2022/03/20 00:54:52;;;;;;;32.70;29.37;;;3.90;99.90;;;;;;5039254;28;20475;-71
2022/03/20 00:57:19;;;;;;;30.70;27.90;;;3.90;99.90;;;;;;5035861;28;20467;-70
2022/03/20 00:59:48;;;;;;;29.87;27.10;;;3.80;99.90;;;;;;5039728;28;20471;-71
2022/03/20 01:02:15;;;;;;;32.03;28.73;;;3.70;99.90;;;;;;5041976;28;20694;-71
2022/03/20 01:04:42;;;;;;;33.03;29.67;;;3.70;99.90;;;;;;5039701;28;20471;-71
2022/03/20 01:07:09;;;;;;;31.90;28.70;;;3.60;99.90;;;;;;5035513;28;20456;-70
2022/03/20 01:09:36;;;;;;;32.20;28.80;;;3.50;99.90;;;;;;5035468;28;20468;-71
2022/03/20 01:12:04;;;;;;;33.53;29.80;;;3.50;99.90;;;;;;5035752;28;20460;-71
2022/03/20 01:14:32;;;;;;;33.57;30.07;;;3.40;99.90;;;;;;5037754;28;20486;-71
2022/03/20 01:17:01;;;;;;;31.90;28.57;;;3.30;99.90;;;;;;5042961;28;20879;-71
2022/03/20 01:19:28;;;;;;;34.33;29.83;;;3.20;99.90;;;;;;5039814;28;20984;-71
2022/03/20 01:21:56;;;;;;;33.13;29.80;;;3.10;99.90;;;;;;5041597;28;20471;-71
2022/03/20 01:24:24;;;;;;;32.23;27.97;;;3.10;99.90;;;;;;5037985;28;20470;-70
2022/03/20 01:26:51;;;;;;;34.43;28.07;;;3.10;99.90;;;;;;5037244;28;20752;-71
2022/03/20 01:29:18;;;;;;;35.40;30.07;;;3.10;99.90;;;;;;5040552;28;20456;-71
2022/03/20 01:31:46;;;;;;;33.77;30.00;;;3.10;99.90;;;;;;5041179;28;21244;-71
2022/03/20 01:34:14;;;;;;;34.20;30.63;;;3.10;99.90;;;;;;5034882;28;20503;-71
2022/03/20 01:36:42;;;;;;;38.20;29.60;;;3.00;99.90;;;;;;5037461;28;20485;-71
2022/03/20 01:39:09;;;;;;;30.77;27.73;;;3.00;99.90;;;;;;5040416;28;20475;-71
2022/03/20 01:41:38;;;;;;;33.60;30.23;;;2.90;99.90;;;;;;5037510;28;20517;-70
2022/03/20 01:44:06;;;;;;;33.20;28.23;;;3.00;99.90;;;;;;5040615;28;20551;-71
2022/03/20 01:46:33;;;;;;;40.67;29.40;;;2.90;99.90;;;;;;5034676;28;20480;-71
2022/03/20 01:49:00;;;;;;;34.20;29.30;;;2.80;99.90;;;;;;5040250;28;20460;-71
2022/03/20 01:54:13;;;;;;;35.83;28.87;;;2.80;99.90;;;;;;5040055;28;21000;-70
2022/03/20 01:56:45;;;;;;;38.40;29.97;;;2.80;99.90;;;;;;5041644;28;20554;-70
2022/03/20 01:59:12;;;;;;;34.00;29.83;;;2.80;99.90;;;;;;5036531;28;20473;-71
2022/03/20 02:01:39;;;;;;;37.77;31.03;;;2.80;99.90;;;;;;5047698;28;20838;-70
2022/03/20 02:04:06;;;;;;;31.03;27.73;;;2.80;99.90;;;;;;5043106;28;20472;-71
2022/03/20 02:06:36;;;;;;;33.50;29.20;;;2.80;99.90;;;;;;5039732;28;20460;-70
2022/03/20 02:09:04;;;;;;;36.03;28.10;;;2.80;99.90;;;;;;5039208;28;20852;-71
2022/03/20 02:11:33;;;;;;;34.33;29.50;;;2.80;99.90;;;;;;5041967;28;20467;-71
2022/03/20 02:14:00;;;;;;;36.77;29.60;;;2.80;99.90;;;;;;5043648;28;20663;-71
2022/03/20 02:16:27;;;;;;;32.00;28.50;;;2.90;99.90;;;;;;5049018;28;20524;-71
2022/03/20 02:18:55;;;;;;;33.33;28.97;;;3.10;99.90;;;;;;5032070;28;20834;-70
2022/03/20 02:21:39;;;;;;;31.90;28.67;;;3.30;99.90;;;;;;5036949;28;20467;-71
2022/03/20 02:24:24;;;;;;;32.17;28.13;;;3.40;99.90;;;;;;5039833;28;20472;-70
2022/03/20 02:26:51;;;;;;;30.00;26.90;;;3.60;99.90;;;;;;5033978;28;20455;-70
2022/03/20 02:29:18;;;;;;;36.40;29.70;;;3.70;99.90;;;;;;5041297;28;20504;-71
2022/03/20 02:31:45;;;;;;;32.43;28.73;;;3.80;99.90;;;;;;5046523;28;20954;-71
2022/03/20 02:34:12;;;;;;;31.33;28.27;;;3.90;99.90;;;;;;5039279;28;20499;-71
2022/03/20 02:36:41;;;;;;;32.43;29.03;;;3.90;99.90;;;;;;5038633;28;20461;-71
2022/03/20 02:39:07;;;;;;;33.00;29.67;;;4.00;99.90;;;;;;5004151;28;20474;-70
2022/03/20 02:41:38;;;;;;;32.40;29.10;;;4.00;99.90;;;;;;5001625;28;20463;-71
2022/03/20 02:44:05;;;;;;;32.00;29.00;;;4.00;99.90;;;;;;5002841;28;20473;-71
2022/03/20 02:46:37;;;;;;;36.67;29.80;;;3.90;99.90;;;;;;4998308;28;21134;-71
2022/03/20 02:49:07;;;;;;;33.23;28.50;;;3.90;99.90;;;;;;5001878;28;20460;-71
2022/03/20 02:51:36;;;;;;;33.87;30.37;;;3.70;99.90;;;;;;4995890;28;20521;-71
2022/03/20 02:54:04;;;;;;;33.17;29.63;;;3.70;99.90;;;;;;5005807;28;20502;-70
2022/03/20 02:56:33;;;;;;;36.80;29.90;;;3.70;99.90;;;;;;5003998;28;20466;-70
2022/03/20 02:59:00;;;;;;;35.93;30.40;;;3.60;99.90;;;;;;5002219;28;20466;-71
2022/03/20 03:01:27;;;;;;;39.37;29.53;;;3.60;99.90;;;;;;5000679;28;20848;-71
2022/03/20 03:03:54;;;;;;;34.13;30.30;;;3.60;99.90;;;;;;4997548;28;20469;-70
2022/03/20 03:06:21;;;;;;;34.10;29.27;;;3.60;99.90;;;;;;4995824;28;20467;-71
2022/03/20 03:11:34;;;;;;;34.93;29.53;;;3.70;99.90;;;;;;5002789;28;20457;-71
2022/03/20 03:15:18;;;;;;;33.53;30.10;;;3.70;99.90;;;;;;5003553;28;20493;-71
2022/03/20 03:16:48;;;;;;;35.00;28.83;;;3.70;99.90;;;;;;4998695;28;20453;-71
2022/03/20 03:19:15;;;;;;;32.23;29.20;;;3.70;99.90;;;;;;5001891;28;20520;-71
2022/03/20 03:21:43;;;;;;;35.50;29.97;;;3.70;99.90;;;;;;5000708;28;21025;-70
2022/03/20 03:24:10;;;;;;;33.47;30.07;;;3.70;99.90;;;;;;5002587;28;20463;-70
2022/03/20 03:26:39;;;;;;;31.80;28.40;;;3.70;99.90;;;;;;5002208;28;20457;-71
2022/03/20 03:29:06;;;;;;;31.87;28.37;;;3.70;99.90;;;;;;4996183;28;20471;-70
2022/03/20 03:31:35;;;;;;;32.63;29.13;;;3.70;99.90;;;;;;5006934;28;20504;-71
2022/03/20 03:36:46;;;;;;;33.67;28.73;;;3.60;99.90;;;;;;5002476;28;20465;-70
2022/03/20 03:39:13;;;;;;;32.70;29.30;;;3.60;99.90;;;;;;5038514;28;20475;-70
2022/03/20 03:41:41;;;;;;;34.00;30.30;;;3.60;99.90;;;;;;5038055;28;20460;-70
2022/03/20 03:44:08;;;;;;;32.50;29.00;;;3.60;99.90;;;;;;5043254;28;20828;-71
2022/03/20 03:46:35;;;;;;;32.97;29.57;;;3.70;99.90;;;;;;5043759;28;20460;-71
2022/03/20 03:49:02;;;;;;;31.93;28.50;;;3.60;99.90;;;;;;5038685;28;20471;-70
2022/03/20 03:51:30;;;;;;;35.53;28.83;;;3.50;99.90;;;;;;5038219;28;20460;-71
2022/03/20 03:53:57;;;;;;;36.00;30.10;;;3.40;99.90;;;;;;5042179;28;20488;-71
2022/03/20 03:56:24;;;;;;;32.77;29.27;;;3.30;99.90;;;;;;5040427;28;20464;-70
2022/03/20 03:58:53;;;;;;;35.93;30.90;;;3.20;99.90;;;;;;5039514;28;20517;-70
2022/03/20 04:01:19;;;;;;;33.47;29.97;;;3.20;99.90;;;;;;5038908;28;20460;-71
2022/03/20 04:03:47;;;;;;;33.83;29.37;;;3.20;99.90;;;;;;5039789;28;20483;-71
2022/03/20 04:06:14;;;;;;;34.57;30.10;;;3.10;99.90;;;;;;5039971;28;21101;-71
2022/03/20 04:08:41;;;;;;;32.50;28.83;;;2.90;99.90;;;;;;5038564;28;20961;-71
2022/03/20 04:11:08;;;;;;;32.30;29.07;;;2.90;99.90;;;;;;5041341;28;20468;-70
2022/03/20 04:13:35;;;;;;;33.07;29.57;;;3.00;99.90;;;;;;5035299;28;20507;-71
2022/03/20 04:16:05;;;;;;;36.97;28.90;;;3.00;99.90;;;;;;5039555;28;20456;-70
2022/03/20 04:18:32;;;;;;;33.37;29.77;;;2.90;99.90;;;;;;5039914;28;20463;-71
2022/03/20 04:21:00;;;;;;;33.97;29.90;;;2.80;99.90;;;;;;5036527;28;20586;-70
2022/03/20 04:26:11;;;;;;;35.17;29.73;;;2.70;99.90;;;;;;5039000;28;20594;-70
2022/03/20 04:28:39;;;;;;;37.47;30.27;;;2.70;99.90;;;;;;5041019;28;20461;-71
2022/03/20 04:31:07;;;;;;;34.53;28.87;;;2.70;99.90;;;;;;5044792;28;20459;-70
2022/03/20 04:33:34;;;;;;;34.53;30.30;;;2.70;99.90;;;;;;5035891;28;20496;-70
2022/03/20 04:36:01;;;;;;;34.63;29.37;;;2.80;99.90;;;;;;5038156;28;20466;-70
2022/03/20 04:38:29;;;;;;;41.93;29.47;;;2.80;99.90;;;;;;5035619;28;20537;-70
2022/03/20 04:40:57;;;;;;;33.10;29.70;;;2.70;99.90;;;;;;5033157;28;20466;-71
2022/03/20 04:43:23;;;;;;;35.67;30.60;;;2.60;99.90;;;;;;5035406;28;20457;-70
2022/03/20 04:45:51;;;;;;;34.23;30.60;;;2.60;99.90;;;;;;5043491;28;20456;-71
2022/03/20 04:59:18;;;;;;;35.40;31.60;;;2.40;99.90;;;;;;5037938;28;20502;-71
2022/03/20 05:01:46;;;;;;;40.63;30.23;;;2.30;99.90;;;;;;5044896;28;20464;-71
2022/03/20 05:04:15;;;;;;;34.60;30.90;;;2.30;99.90;;;;;;5041689;28;20474;-71
2022/03/20 05:06:43;;;;;;;34.50;30.67;;;2.20;99.90;;;;;;5020181;28;21045;-70
2022/03/20 05:14:38;;;;;;;34.90;30.37;;;2.30;99.90;;;;;;5035545;28;20937;-70
2022/03/20 05:17:07;;;;;;;38.30;30.43;;;2.20;99.90;;;;;;5016276;28;20968;-70
2022/03/20 05:19:35;;;;;;;34.17;30.53;;;2.10;99.90;;;;;;5006505;28;20504;-71
2022/03/20 05:22:03;;;;;;;35.90;29.57;;;2.20;99.90;;;;;;5009243;28;20465;-70
2022/03/20 05:24:30;;;;;;;36.33;30.10;;;2.10;99.90;;;;;;5008723;28;21305;-70
2022/03/20 05:26:58;;;;;;;34.37;30.60;;;2.10;99.90;;;;;;5010270;28;20472;-70
2022/03/20 05:29:24;;;;;;;36.47;30.20;;;2.10;99.90;;;;;;5010577;28;20555;-70
2022/03/20 05:31:52;;;;;;;35.83;31.87;;;2.20;99.90;;;;;;5013130;28;20464;-70
2022/03/20 05:34:19;;;;;;;35.27;31.47;;;2.10;99.90;;;;;;5010124;28;20511;-70
2022/03/20 05:36:48;;;;;;;37.77;31.00;;;2.10;99.90;;;;;;5023578;28;20478;-70
2022/03/20 05:39:15;;;;;;;43.43;31.03;;;2.20;99.90;;;;;;5039626;28;20620;-70
2022/03/20 05:41:47;;;;;;;34.80;31.10;;;2.20;99.90;;;;;;5036694;28;20451;-71
2022/03/20 05:44:15;;;;;;;35.87;30.60;;;2.20;99.90;;;;;;5037036;28;20455;-70
2022/03/20 05:46:43;;;;;;;37.93;31.33;;;2.30;99.90;;;;;;5011428;28;20833;-71
2022/03/20 05:49:09;;;;;;;34.40;29.87;;;2.40;99.90;;;;;;5011212;28;20461;-70
2022/03/20 05:51:37;;;;;;;49.27;31.90;;;2.60;99.90;;;;;;5011484;28;20504;-70
2022/03/20 05:54:05;;;;;;;41.23;32.47;;;2.60;99.90;;;;;;5011018;28;20495;-70
2022/03/20 05:59:16;;;;;;;35.63;30.60;;;2.90;99.90;;;;;;5011633;28;20471;-70
2022/03/20 06:01:43;;;;;;;39.50;32.03;;;3.00;99.90;;;;;;5011530;28;21049;-70
2022/03/20 06:04:11;;;;;;;34.90;31.20;;;3.10;99.90;;;;;;5010217;28;20468;-70
2022/03/20 06:06:38;;;;;;;32.60;29.20;;;3.20;99.90;;;;;;5008648;28;20529;-70
2022/03/20 06:09:06;;;;;;;33.27;29.77;;;3.30;99.90;;;;;;5008933;28;20480;-70
2022/03/20 06:11:34;;;;;;;34.23;29.83;;;3.40;99.90;;;;;;5008986;28;20994;-70
2022/03/20 06:14:01;;;;;;;33.70;30.00;;;3.40;99.90;;;;;;5009811;28;20551;-69
2022/03/20 06:16:28;;;;;;;36.63;29.60;;;3.40;99.90;;;;;;5010698;28;20460;-70
2022/03/20 06:18:55;;;;;;;38.53;30.90;;;3.50;99.90;;;;;;5010678;28;20701;-70
2022/03/20 06:21:23;;;;;;;35.73;30.23;;;3.70;99.90;;;;;;5008488;28;20457;-70
2022/03/20 06:23:50;;;;;;;39.03;31.90;;;3.70;99.90;;;;;;5011179;28;20457;-70
2022/03/20 06:26:18;;;;;;;32.37;28.80;;;3.60;99.90;;;;;;5011035;28;20469;-70
2022/03/20 06:28:45;;;;;;;40.00;29.43;;;3.70;99.90;;;;;;5010889;28;20767;-70
2022/03/20 06:31:12;;;;;;;30.33;27.20;;;3.90;99.90;;;;;;5011081;28;20563;-70
2022/03/20 06:33:40;;;;;;;40.40;31.10;;;4.00;99.90;;;;;;5010882;28;20516;-69
2022/03/20 06:36:08;;;;;;;34.67;29.70;;;4.00;99.90;;;;;;5010082;28;20468;-70
2022/03/20 06:38:35;;;;;;;34.17;30.00;;;4.10;99.90;;;;;;5010327;28;20497;-70
2022/03/20 06:41:03;;;;;;;35.30;30.03;;;4.00;99.90;;;;;;5024463;28;20578;-70
2022/03/20 06:43:33;;;;;;;41.43;32.07;;;4.00;99.90;;;;;;5039267;28;20466;-70
2022/03/20 06:46:00;;;;;;;35.70;28.60;;;4.10;99.90;;;;;;5043280;28;20448;-70
2022/03/20 06:48:28;;;;;;;38.20;31.87;;;4.10;99.90;;;;;;5026275;28;21126;-71
2022/03/20 06:50:55;;;;;;;33.87;30.23;;;4.20;99.90;;;;;;5035922;28;20918;-69
2022/03/20 06:53:22;;;;;;;34.40;30.07;;;4.20;99.90;;;;;;5038595;28;20464;-70
2022/03/20 06:55:51;;;;;;;35.60;30.20;;;4.20;99.90;;;;;;5037824;28;20520;-70
2022/03/20 06:58:20;;;;;;;36.57;29.70;;;4.10;99.90;;;;;;5006876;28;21770;-70
2022/03/20 07:00:48;;;;;;;42.70;31.50;;;4.20;99.90;;;;;;5008053;28;20500;-70
2022/03/20 07:03:16;;;;;;;32.90;29.07;;;4.10;99.90;;;;;;5009041;28;20472;-70
2022/03/20 07:05:43;;;;;;;34.50;29.53;;;4.20;99.90;;;;;;5007826;28;23009;-69
2022/03/20 07:08:10;;;;;;;33.60;30.13;;;4.40;99.90;;;;;;5009479;28;20872;-70
2022/03/20 07:10:37;;;;;;;35.60;31.70;;;4.40;99.90;;;;;;5008795;28;20469;-70
2022/03/20 07:15:53;;;;;;;33.93;30.30;;;4.60;99.90;;;;;;5006544;28;20520;-70
2022/03/20 07:18:21;;;;;;;36.33;31.80;;;4.90;99.90;;;;;;5008557;28;20560;-70
2022/03/20 07:20:49;;;;;;;33.50;29.00;;;5.00;99.90;;;;;;5006015;28;20465;-70
2022/03/20 07:23:16;;;;;;;31.50;28.30;;;4.90;99.90;;;;;;5008274;28;20461;-70
2022/03/20 07:31:29;;;;;;;35.30;31.70;;;4.90;99.90;;;;;;4927571;28;21044;-70
2022/03/20 07:33:56;;;;;;;33.47;30.13;;;4.90;99.90;;;;;;4972493;28;20477;-70
2022/03/20 07:36:23;;;;;;;36.97;33.20;;;5.00;99.90;;;;;;5007674;28;20571;-70
2022/03/20 07:38:51;;;;;;;38.53;31.37;;;5.10;99.90;;;;;;4971852;28;20494;-70
2022/03/20 07:41:18;;;;;;;37.23;33.30;;;5.10;99.90;;;;;;4968148;28;20463;-70
2022/03/20 07:43:45;;;;;;;37.60;33.43;;;5.10;99.90;;;;;;4968929;28;20607;-70
2022/03/20 07:46:12;;;;;;;35.40;31.53;;;5.30;99.90;;;;;;4967380;28;21030;-70
2022/03/20 07:48:41;;;;;;;39.40;33.30;;;5.50;99.90;;;;;;4995747;28;20481;-70
2022/03/20 07:51:08;;;;;;;34.20;30.77;;;5.70;99.90;;;;;;4994108;28;20956;-70
2022/03/20 07:53:36;;;;;;;41.83;33.33;;;5.80;99.90;;;;;;4996303;28;20476;-70
2022/03/20 07:56:03;;;;;;;37.00;33.13;;;5.90;99.90;;;;;;4976896;28;20493;-70
2022/03/20 07:58:30;;;;;;;48.47;32.17;;;6.20;99.90;;;;;;4967662;28;20473;-70
2022/03/20 08:00:57;;;;;;;35.70;31.77;;;6.30;99.90;;;;;;4969721;28;20462;-70
2022/03/20 08:03:24;;;;;;;36.50;31.50;;;6.60;99.90;;;;;;4968735;28;20477;-70
2022/03/20 08:05:52;;;;;;;36.73;33.00;;;6.80;99.90;;;;;;4965920;28;20470;-71
2022/03/20 08:08:18;;;;;;;36.50;32.57;;;7.00;99.90;;;;;;4968264;28;20460;-70
2022/03/20 08:10:45;;;;;;;35.27;31.57;;;7.30;99.90;;;;;;4968535;28;20954;-70
2022/03/20 08:13:12;;;;;;;35.30;31.73;;;7.50;99.90;;;;;;4966874;28;20857;-70
2022/03/20 08:15:40;;;;;;;37.27;33.23;;;7.50;99.90;;;;;;4968590;28;20502;-70
2022/03/20 08:18:08;;;;;;;38.87;34.00;;;7.90;99.90;;;;;;4968167;28;20923;-70
2022/03/20 08:20:35;;;;;;;42.40;34.13;;;8.10;99.90;;;;;;4967457;28;20895;-71
2022/03/20 08:23:04;;;;;;;37.73;33.30;;;8.40;99.90;;;;;;4967938;28;20456;-70
2022/03/20 08:25:31;;;;;;;37.50;33.50;;;8.70;99.90;;;;;;4966945;28;20498;-71
2022/03/20 08:27:59;;;;;;;38.17;33.87;;;9.00;98.60;;;;;;4968203;28;21067;-70
2022/03/20 08:30:27;;;;;;;42.10;34.97;;;9.20;98.50;;;;;;4968344;28;20478;-70
2022/03/20 08:32:55;;;;;;;45.03;36.83;;;9.40;97.80;;;;;;4968220;28;20568;-71
2022/03/20 08:35:21;;;;;;;41.50;34.67;;;9.40;97.00;;;;;;4966794;28;20482;-71
2022/03/20 08:37:50;;;;;;;55.47;35.13;;;9.40;96.80;;;;;;4967273;28;20512;-70
2022/03/20 08:40:21;;;;;;;45.23;36.20;;;9.30;96.60;;;;;;4981479;28;20466;-71
2022/03/20 08:42:49;;;;;;;51.40;34.60;;;9.20;96.30;;;;;;4999155;28;20617;-71
2022/03/20 08:45:17;;;;;;;54.90;35.67;;;9.20;96.10;;;;;;5000305;28;22514;-71
2022/03/20 08:47:44;;;;;;;48.70;34.47;;;9.10;94.90;;;;;;5002050;28;20473;-70
2022/03/20 08:50:13;;;;;;;50.97;36.20;;;9.30;95.90;;;;;;4982611;28;20457;-71
2022/03/20 08:52:40;;;;;;;44.50;37.90;;;9.40;95.30;;;;;;4968352;28;20473;-70
2022/03/20 08:55:11;;;;;;;49.80;36.70;;;9.40;94.70;;;;;;4966262;28;20481;-71
2022/03/20 08:57:41;;;;;;;42.50;36.93;;;9.50;95.00;;;;;;4967288;28;20465;-71
2022/03/20 09:00:10;;;;;;;46.53;34.77;;;9.60;94.60;;;;;;4971992;28;20470;-71
2022/03/20 09:02:37;;;;;;;42.60;34.27;;;9.50;94.20;;;;;;4972171;28;20450;-71
2022/03/20 09:05:04;;;;;;;50.67;34.50;;;9.30;94.30;;;;;;4971952;28;20996;-71
2022/03/20 09:07:31;;;;;;;52.80;37.03;;;9.30;94.70;;;;;;4972262;28;20477;-70
2022/03/20 09:09:58;;;;;;;57.33;35.83;;;9.30;94.60;;;;;;4971392;28;21038;-70
2022/03/20 09:12:26;;;;;;;41.60;34.27;;;9.20;94.50;;;;;;4976810;28;20472;-70
2022/03/20 09:14:54;;;;;;;45.97;34.43;;;9.20;94.20;;;;;;5001027;28;20591;-71
2022/03/20 09:20:06;;;;;;;43.43;35.93;;;9.20;94.50;;;;;;4971056;28;20688;-71
2022/03/20 09:22:34;;;;;;;42.10;33.90;;;9.10;94.40;;;;;;4971360;28;20469;-71
2022/03/20 09:25:01;;;;;;;38.90;31.50;;;9.00;94.50;;;;;;4971332;28;20664;-71
2022/03/20 09:27:27;;;;;;;53.73;33.67;;;8.90;94.70;;;;;;4971789;28;20462;-71
2022/03/20 09:29:56;;;;;;;40.60;34.40;;;8.80;94.60;;;;;;4971447;28;20470;-71
2022/03/20 09:32:22;;;;;;;42.77;36.17;;;8.70;94.80;;;;;;4972331;28;20466;-70
2022/03/20 09:34:49;;;;;;;46.83;34.43;;;8.60;94.80;;;;;;4970440;28;20564;-71
2022/03/20 09:37:16;;;;;;;53.50;36.30;;;8.40;94.40;;;;;;4981999;28;20499;-71
2022/03/20 09:39:43;;;;;;;45.80;35.20;;;8.30;95.10;;;;;;5008922;28;21123;-71
2022/03/20 09:42:10;;;;;;;45.63;35.40;;;8.20;95.10;;;;;;5010025;28;20459;-71
2022/03/20 09:44:39;;;;;;;41.80;33.73;;;8.20;95.50;;;;;;5010696;28;20469;-71
2022/03/20 09:47:10;;;;;;;44.40;34.17;;;8.30;95.80;;;;;;5011038;28;20456;-70
2022/03/20 09:49:38;;;;;;;44.27;33.57;;;8.40;94.90;;;;;;5010212;28;20518;-71
2022/03/20 09:52:06;;;;;;;45.43;34.93;;;8.40;95.10;;;;;;5010576;28;20464;-71
2022/03/20 09:54:34;;;;;;;43.43;34.40;;;8.40;95.20;;;;;;5010363;28;20709;-71
2022/03/20 09:57:04;;;;;;;46.57;35.20;;;8.40;95.20;;;;;;5010124;28;20488;-71
2022/03/20 09:59:31;;;;;;;55.87;35.27;;;8.50;95.40;;;;;;5009248;28;20553;-71
2022/03/20 10:02:03;;;;;;;43.03;35.60;;;8.50;95.40;;;;;;5010496;28;21826;-71
2022/03/20 10:04:34;;;;;;;42.10;35.47;;;8.60;95.10;;;;;;5008206;28;21050;-71
2022/03/20 10:07:01;;;;;;;41.30;36.50;;;8.80;95.10;;;;;;5010735;28;21452;-70
2022/03/20 10:09:29;;;;;;;52.40;35.40;;;9.20;95.40;;;;;;5014524;28;20843;-71
2022/03/20 10:11:57;;;;;;;43.87;33.77;;;9.50;94.90;;;;;;5037342;28;20465;-71
2022/03/20 10:14:26;;;;;;;36.13;32.17;;;10.00;94.00;;;;;;5039379;28;20456;-71
2022/03/20 10:16:57;;;;;;;37.33;33.47;;;10.70;94.00;;;;;;5015407;28;20492;-71
2022/03/20 10:19:32;;;;;;;38.20;33.23;;;11.50;92.50;;;;;;5002391;28;20493;-71
2022/03/20 10:22:02;;;;;;;43.20;35.03;;;11.60;91.40;;;;;;5003600;28;21857;-71
2022/03/20 10:24:31;;;;;;;39.50;33.97;;;11.50;91.10;;;;;;5003256;28;20469;-71
2022/03/20 10:27:14;;;;;;;46.93;35.07;;;11.70;91.30;;;;;;5002148;28;20468;-71
2022/03/20 10:29:53;;;;;;;37.70;33.87;;;11.80;90.80;;;;;;5002574;28;21110;-71
2022/03/20 10:32:20;;;;;;;39.80;35.33;;;11.70;90.20;;;;;;5003714;28;21521;-71
2022/03/20 10:34:50;;;;;;;38.43;33.90;;;11.90;90.50;;;;;;5002778;28;20469;-71
2022/03/20 10:37:18;;;;;;;38.47;33.40;;;12.60;90.00;;;;;;5002463;28;20496;-71
2022/03/20 10:39:45;;;;;;;36.30;32.47;;;12.80;88.00;;;;;;5003329;28;20491;-71
2022/03/20 10:42:14;;;;;;;38.17;34.07;;;13.20;88.10;;;;;;5031149;28;21021;-72
2022/03/20 10:44:41;;;;;;;41.30;34.13;;;13.30;86.30;;;;;;5036079;28;20471;-71
2022/03/20 10:47:13;;;;;;;38.23;33.03;;;13.40;85.50;;;;;;5034802;28;20901;-71
2022/03/20 10:49:43;;;;;;;41.07;34.20;;;13.40;85.50;;;;;;5028826;28;20472;-71
2022/03/20 10:52:13;;;;;;;49.23;34.07;;;13.40;83.40;;;;;;5003838;28;20685;-71
2022/03/20 10:54:43;;;;;;;46.53;32.97;;;13.30;82.50;;;;;;4998656;28;20633;-71
2022/03/20 10:57:11;;;;;;;52.80;34.37;;;13.40;83.70;;;;;;5032524;28;20499;-72
2022/03/20 10:59:39;;;;;;;41.30;35.77;;;13.60;80.30;;;;;;5036307;28;20464;-72
2022/03/20 11:02:20;;;;;;;35.83;31.70;;;13.50;80.60;;;;;;5040619;28;20471;-71
2022/03/20 11:04:46;;;;;;;37.07;32.97;;;13.50;80.50;;;;;;5011548;28;20491;-71
2022/03/20 11:07:17;;;;;;;37.13;33.20;;;13.50;80.50;;;;;;5001682;28;20465;-71
2022/03/20 11:09:46;;;;;;;38.30;34.03;;;13.40;79.20;;;;;;5002249;28;20471;-71
2022/03/20 11:12:18;;;;;;;36.80;33.13;;;13.10;80.70;;;;;;5003716;28;20472;-71
2022/03/20 11:14:46;;;;;;;40.43;35.20;;;13.20;83.40;;;;;;5002360;28;21052;-72
2022/03/20 11:17:17;;;;;;;40.90;34.87;;;13.20;82.20;;;;;;5001421;28;20851;-71
2022/03/20 11:19:50;;;;;;;42.17;35.67;;;13.10;81.90;;;;;;5002122;28;21289;-71
2022/03/20 11:22:21;;;;;;;40.93;35.27;;;12.90;83.60;;;;;;5000826;28;20473;-71
2022/03/20 11:24:51;;;;;;;37.70;33.40;;;13.30;83.30;;;;;;5002566;28;20475;-71
2022/03/20 11:27:24;;;;;;;41.07;36.50;;;13.20;82.00;;;;;;5001918;28;20464;-72
2022/03/20 11:29:55;;;;;;;48.63;35.77;;;13.40;82.10;;;;;;5000521;28;20467;-71
2022/03/20 11:32:23;;;;;;;40.93;34.60;;;13.50;81.80;;;;;;5001186;28;20869;-71
2022/03/20 11:34:51;;;;;;;42.87;32.40;;;13.40;81.00;;;;;;5002240;28;20756;-71
2022/03/20 11:37:18;;;;;;;40.90;33.67;;;14.00;82.30;;;;;;5001247;28;20511;-71
2022/03/20 11:40:12;;;;;;;40.90;32.93;;;14.60;79.50;;;;;;5002824;28;20461;-71
2022/03/20 11:42:51;;;;;;;39.30;35.27;;;15.70;79.00;;;;;;5073941;27;21183;-71
2022/03/20 11:45:20;;;;;;;37.40;33.63;;;16.10;76.00;;;;;;5062575;28;20474;-72
2022/03/20 11:47:48;;;;;;;37.37;33.77;;;15.50;74.60;;;;;;5056226;28;20461;-72
2022/03/20 11:50:19;;;;;;;40.03;34.53;;;14.50;74.80;;;;;;5061324;28;20762;-72
2022/03/20 11:52:53;;;;;;;44.17;34.73;;;14.00;77.20;;;;;;5062101;28;20461;-71
2022/03/20 11:55:30;;;;;;;39.63;35.50;;;13.60;78.00;;;;;;5060302;28;20474;-71
2022/03/20 11:57:59;;;;;;;43.60;38.90;;;13.50;80.60;;;;;;5076362;28;20514;-71
2022/03/20 12:00:27;;;;;;;51.03;45.57;;;13.10;87.20;;;;;;5073249;28;20477;-71
2022/03/20 12:03:29;;;;;;;55.80;50.30;;;12.60;94.90;;;;;;5068250;28;21070;-69
2022/03/20 12:06:38;;;;;;;69.53;56.20;;;12.20;99.90;;;;;;5060087;28;20861;-69
2022/03/20 12:09:17;;;;;;;71.77;57.87;;;11.60;99.90;;;;;;5054954;28;20466;-69
2022/03/20 12:11:58;;;;;;;65.60;58.50;;;10.60;99.90;;;;;;5060655;28;20831;-68
2022/03/20 12:14:32;;;;;;;75.97;66.43;;;10.00;99.90;;;;;;5060875;28;20457;-70
2022/03/20 12:17:00;;;;;;;77.50;65.50;;;9.40;99.90;;;;;;5059018;28;20512;-68
2022/03/20 12:19:38;;;;;;;78.30;63.47;;;9.00;99.90;;;;;;5061001;28;20457;-68
2022/03/20 12:22:07;;;;;;;72.10;55.20;;;8.70;99.90;;;;;;5056455;28;20946;-67
2022/03/20 12:24:52;;;;;;;67.43;56.90;;;8.70;99.90;;;;;;5057491;28;21213;-68
2022/03/20 12:27:56;;;;;;;67.40;57.47;;;8.50;99.90;;;;;;5055270;28;20469;-69
2022/03/20 12:30:36;;;;;;;66.17;55.97;;;8.40;99.90;;;;;;5052146;28;20979;-70
2022/03/20 12:33:05;;;;;;;66.30;57.80;;;8.30;99.90;;;;;;5049639;28;21555;-68
2022/03/20 12:35:45;;;;;;;64.30;55.27;;;8.40;99.90;;;;;;5032779;28;21007;-68
2022/03/20 12:38:41;;;;;;;69.50;57.50;;;8.30;99.90;;;;;;5030914;28;20548;-68
2022/03/20 12:41:14;;;;;;;42.23;38.13;;;8.40;99.90;;;;;;5030801;28;20497;-69
2022/03/20 12:43:42;;;;;;;31.33;28.93;;;8.40;99.90;;;;;;5032522;28;20474;-69
2022/03/20 12:46:11;;;;;;;31.97;29.67;;;8.40;99.90;;;;;;5026937;28;20474;-68
2022/03/20 12:48:50;;;;;;;29.97;27.77;;;8.40;99.90;;;;;;5032905;28;20467;-70
2022/03/20 12:51:30;;;;;;;31.37;29.07;;;8.30;99.90;;;;;;5030498;28;20463;-69
2022/03/20 12:54:04;;;;;;;31.83;29.53;;;8.30;99.90;;;;;;5019431;28;20471;-67
2022/03/20 12:56:32;;;;;;;31.50;29.20;;;8.30;99.90;;;;;;5017925;28;20462;-67
2022/03/20 12:59:00;;;;;;;30.70;28.50;;;8.40;99.90;;;;;;5019039;28;20561;-68
2022/03/20 13:01:37;;;;;;;30.30;28.10;;;8.40;99.90;;;;;;5018716;28;20496;-68
2022/03/20 13:04:15;;;;;;;29.30;27.20;;;8.50;99.90;;;;;;5018602;28;21049;-70
2022/03/20 13:06:42;;;;;;;28.70;26.70;;;8.50;99.90;;;;;;5019470;28;20845;-70
2022/03/20 13:09:12;;;;;;;26.00;24.30;;;8.40;99.90;;;;;;5021188;28;20835;-68
2022/03/20 13:11:56;;;;;;;24.70;23.03;;;8.30;99.90;;;;;;5019268;28;20937;-67
2022/03/20 13:14:24;;;;;;;22.10;20.70;;;8.30;99.90;;;;;;5020159;28;21264;-68
2022/03/20 13:16:53;;;;;;;21.00;19.80;;;8.30;99.90;;;;;;5018280;28;20466;-68
2022/03/20 13:19:28;;;;;;;20.10;19.00;;;8.40;99.90;;;;;;5019048;28;20626;-68
2022/03/20 13:21:55;;;;;;;18.60;17.60;;;8.40;99.90;;;;;;5019673;28;20498;-69
2022/03/20 13:24:29;;;;;;;20.07;18.97;;;8.50;99.90;;;;;;5017778;28;20473;-68
2022/03/20 13:26:58;;;;;;;18.70;17.70;;;8.50;99.90;;;;;;5019673;28;20532;-68